createdAt,value
2022-09-15T00:01:33.289Z,93811.44
2022-09-15T00:03:59.918Z,93807.72
2022-09-15T00:06:26.591Z,93799.75
2022-09-15T00:08:53.727Z,93797.75
2022-09-15T00:11:25.783Z,93789.53
2022-09-15T00:13:53.512Z,93775.00
2022-09-15T00:16:21.908Z,93784.69
2022-09-15T00:18:48.950Z,93779.69
2022-09-15T00:21:19.440Z,93783.72
2022-09-15T00:23:46.929Z,93778.41
2022-09-15T00:26:16.244Z,93781.56
2022-09-15T00:28:43.290Z,93779.13
2022-09-15T00:31:13.724Z,93778.22
2022-09-15T00:33:40.412Z,93770.63
2022-09-15T00:36:10.003Z,93780.09
2022-09-15T00:38:37.329Z,93780.00
2022-09-15T00:41:05.206Z,93778.25
2022-09-15T00:44:02.436Z,93780.38
2022-09-15T00:46:37.328Z,93780.94
2022-09-15T00:49:21.761Z,93782.00
2022-09-15T00:51:56.285Z,93774.38
2022-09-15T00:54:30.790Z,93758.97
2022-09-15T00:57:00.796Z,93757.69
2022-09-15T00:59:29.661Z,93762.06
2022-09-15T01:02:08.941Z,93767.75
2022-09-15T01:04:35.589Z,93750.16
2022-09-15T01:07:04.074Z,93750.72
2022-09-15T01:09:38.432Z,93751.00
2022-09-15T01:12:05.409Z,93730.63
2022-09-15T01:14:32.099Z,93732.81
2022-09-15T01:17:24.246Z,93730.75
2022-09-15T01:20:11.837Z,93742.75
2022-09-15T01:22:51.411Z,93732.59
2022-09-15T01:25:33.229Z,93737.56
2022-09-15T01:28:24.473Z,93733.88
2022-09-15T01:31:17.193Z,93734.34
2022-09-15T01:33:50.818Z,93741.88
2022-09-15T01:36:23.702Z,93743.63
2022-09-15T01:39:01.046Z,93733.44
2022-09-15T01:41:31.705Z,93723.75
2022-09-15T01:44:07.491Z,93730.69
2022-09-15T01:46:38.099Z,93722.59
2022-09-15T01:49:06.915Z,93721.09
2022-09-15T01:51:34.270Z,93716.28
2022-09-15T01:54:03.342Z,93710.03
2022-09-15T01:56:29.991Z,93728.06
2022-09-15T01:58:56.609Z,93731.19
2022-09-15T02:01:42.297Z,93731.09
2022-09-15T02:04:16.274Z,93730.16
2022-09-15T02:06:53.386Z,93729.81
2022-09-15T02:09:27.677Z,93727.00
2022-09-15T02:12:09.004Z,93734.66
2022-09-15T02:14:39.156Z,93724.72
2022-09-15T02:17:05.905Z,93724.72
2022-09-15T02:19:36.612Z,93717.44
2022-09-15T02:22:11.210Z,93722.53
2022-09-15T02:25:03.791Z,93721.47
2022-09-15T02:27:34.274Z,93729.34
2022-09-15T02:30:06.940Z,93733.81
2022-09-15T02:32:35.208Z,93724.94
2022-09-15T02:35:06.800Z,93721.72
2022-09-15T02:37:35.160Z,93736.91
2022-09-15T02:40:02.204Z,93730.44
2022-09-15T02:42:31.132Z,93729.75
2022-09-15T02:44:58.637Z,93723.63
2022-09-15T02:47:25.745Z,93723.63
2022-09-15T02:49:52.953Z,93721.91
2022-09-15T02:52:19.685Z,93732.03
2022-09-15T02:54:46.376Z,93731.34
2022-09-15T02:57:14.322Z,93722.81
2022-09-15T02:59:59.749Z,93737.69
2022-09-15T03:02:26.880Z,93717.50
2022-09-15T03:04:53.578Z,93709.88
2022-09-15T03:07:20.345Z,93723.84
2022-09-15T03:09:47.370Z,93725.69
2022-09-15T03:12:14.054Z,93725.47
2022-09-15T03:14:40.670Z,93728.22
2022-09-15T03:17:07.306Z,93729.00
2022-09-15T03:19:33.929Z,93724.72
2022-09-15T03:22:00.582Z,93729.47
2022-09-15T03:24:27.239Z,93727.41
2022-09-15T03:26:53.849Z,93733.50
2022-09-15T03:29:20.448Z,93729.03
2022-09-15T03:31:47.286Z,93730.63
2022-09-15T03:34:13.945Z,93728.47
2022-09-15T03:36:41.322Z,93728.69
2022-09-15T03:39:08.013Z,93729.47
2022-09-15T03:41:34.634Z,93731.34
2022-09-15T03:44:01.344Z,93726.25
2022-09-15T03:46:28.027Z,93731.91
2022-09-15T03:48:54.656Z,93731.13
2022-09-15T03:51:21.990Z,93726.59
2022-09-15T03:53:49.950Z,93717.84
2022-09-15T03:56:24.141Z,93725.81
2022-09-15T03:58:51.638Z,93717.84
2022-09-15T04:01:19.147Z,93729.25
2022-09-15T04:03:50.619Z,93726.81
2022-09-15T04:06:19.012Z,93722.09
2022-09-15T04:08:45.674Z,93713.66
2022-09-15T04:11:13.090Z,93722.56
2022-09-15T04:13:40.809Z,93720.34
2022-09-15T04:16:09.898Z,93727.72
2022-09-15T04:18:36.626Z,93733.91
2022-09-15T04:21:06.374Z,93741.19
2022-09-15T04:23:33.809Z,93737.06
2022-09-15T04:26:06.700Z,93735.44
2022-09-15T04:28:35.606Z,93726.53
2022-09-15T04:31:10.900Z,93726.91
2022-09-15T04:33:39.691Z,93727.94
2022-09-15T04:36:11.997Z,93732.22
2022-09-15T04:38:38.898Z,93735.56
2022-09-15T04:41:06.257Z,93730.91
2022-09-15T04:43:33.491Z,93728.25
2022-09-15T04:46:00.122Z,93728.25
2022-09-15T04:48:27.193Z,93729.88
2022-09-15T04:50:54.164Z,93723.84
2022-09-15T04:53:20.972Z,93712.28
2022-09-15T04:55:47.574Z,93717.38
2022-09-15T04:58:14.426Z,93715.06
2022-09-15T05:00:43.567Z,93713.78
2022-09-15T05:03:11.271Z,93716.97
2022-09-15T05:05:38.549Z,93718.59
2022-09-15T05:08:05.403Z,93717.13
2022-09-15T05:10:32.026Z,93732.72
2022-09-15T05:12:58.722Z,93730.44
2022-09-15T05:15:25.367Z,93727.09
2022-09-15T05:17:52.019Z,93726.88
2022-09-15T05:20:18.751Z,93731.38
2022-09-15T05:22:45.642Z,93728.47
2022-09-15T05:25:12.323Z,93729.31
2022-09-15T05:27:39.644Z,93739.38
2022-09-15T05:30:32.733Z,93739.28
2022-09-15T05:32:54.257Z,93736.16
2022-09-15T05:35:20.925Z,93755.44
2022-09-15T05:37:47.594Z,93723.81
2022-09-15T05:40:15.354Z,93739.09
2022-09-15T05:42:42.038Z,93742.66
2022-09-15T05:45:09.101Z,93733.81
2022-09-15T05:47:35.808Z,93732.34
2022-09-15T05:50:02.428Z,93736.00
2022-09-15T05:52:29.223Z,93738.22
2022-09-15T05:54:58.960Z,93736.22
2022-09-15T05:57:25.893Z,93739.13
2022-09-15T05:59:52.535Z,93728.25
2022-09-15T06:02:19.276Z,93731.06
2022-09-15T06:04:45.962Z,93727.13
2022-09-15T06:07:13.198Z,93738.25
2022-09-15T06:09:39.824Z,93732.75
2022-09-15T06:12:06.601Z,93730.38
2022-09-15T06:14:33.256Z,93736.03
2022-09-15T06:16:59.886Z,93729.34
2022-09-15T06:19:26.516Z,93734.66
2022-09-15T06:21:54.253Z,93735.00
2022-09-15T06:24:21.720Z,93735.47
2022-09-15T06:26:48.353Z,93730.59
2022-09-15T06:29:15.068Z,93737.31
2022-09-15T06:31:41.820Z,93725.28
2022-09-15T06:34:09.921Z,93741.22
2022-09-15T06:36:37.772Z,93731.88
2022-09-15T06:39:05.041Z,93743.22
2022-09-15T06:41:47.420Z,93750.34
2022-09-15T06:44:21.807Z,93757.53
2022-09-15T06:46:49.405Z,93756.72
2022-09-15T06:49:16.375Z,93747.59
2022-09-15T06:51:43.074Z,93756.16
2022-09-15T06:54:09.688Z,93753.00
2022-09-15T06:56:38.267Z,93752.44
2022-09-15T06:59:05.233Z,93762.72
2022-09-15T07:01:32.761Z,93762.72
2022-09-15T07:04:01.092Z,93764.13
2022-09-15T07:06:29.312Z,93761.47
2022-09-15T07:08:56.769Z,93759.09
2022-09-15T07:11:23.507Z,93757.72
2022-09-15T07:13:50.871Z,93758.84
2022-09-15T07:16:19.127Z,93755.38
2022-09-15T07:18:46.988Z,93756.50
2022-09-15T07:21:16.921Z,93756.13
2022-09-15T07:23:43.887Z,93759.50
2022-09-15T07:26:12.387Z,93760.34
2022-09-15T07:28:39.696Z,93768.97
2022-09-15T07:31:07.393Z,93783.34
2022-09-15T07:33:34.500Z,93785.72
2022-09-15T07:36:08.610Z,93790.31
2022-09-15T07:38:38.792Z,93800.81
2022-09-15T07:41:13.993Z,93798.44
2022-09-15T07:43:44.974Z,93799.56
2022-09-15T07:46:11.653Z,93798.63
2022-09-15T07:48:38.315Z,93795.22
2022-09-15T07:51:05.017Z,93799.13
2022-09-15T07:53:31.716Z,93791.19
2022-09-15T07:55:58.340Z,93795.22
2022-09-15T07:58:25.382Z,93798.53
2022-09-15T08:00:52.251Z,93775.34
2022-09-15T08:03:19.061Z,93793.25
2022-09-15T08:05:46.291Z,93797.94
2022-09-15T08:08:13.379Z,93799.53
2022-09-15T08:10:41.282Z,93785.06
2022-09-15T08:13:08.301Z,93813.44
2022-09-15T08:15:37.894Z,93816.81
2022-09-15T08:18:05.434Z,93811.31
2022-09-15T08:20:32.337Z,93820.50
2022-09-15T08:22:59.265Z,93823.56
2022-09-15T08:25:26.026Z,93828.63
2022-09-15T08:27:54.261Z,93831.84
2022-09-15T08:30:21.390Z,93829.59
2022-09-15T08:32:48.551Z,93845.47
2022-09-15T08:35:16.060Z,93850.63
2022-09-15T08:37:42.945Z,93842.81
2022-09-15T08:40:18.545Z,93850.59
2022-09-15T08:42:47.122Z,93846.25
2022-09-15T08:45:48.011Z,93852.81
2022-09-15T08:48:16.071Z,93845.94
2022-09-15T08:50:45.898Z,93850.16
2022-09-15T08:53:16.833Z,93846.72
2022-09-15T08:55:43.393Z,93855.31
2022-09-15T08:58:15.309Z,93846.25
2022-09-15T09:00:42.350Z,93846.41
2022-09-15T09:03:25.399Z,93848.84
2022-09-15T09:06:19.569Z,93843.63
2022-09-15T09:09:03.577Z,93837.50
2022-09-15T09:11:35.842Z,93834.63
2022-09-15T09:14:08.701Z,93831.63
2022-09-15T09:16:58.645Z,93821.94
2022-09-15T09:19:53.200Z,93822.69
2022-09-15T09:22:34.324Z,93825.47
2022-09-15T09:25:11.691Z,93821.50
2022-09-15T09:27:43.487Z,93818.47
2022-09-15T09:30:15.467Z,93819.19
2022-09-15T09:32:46.721Z,93826.03
2022-09-15T09:35:38.175Z,93816.63
2022-09-15T09:38:04.866Z,93811.72
2022-09-15T09:40:32.847Z,93810.63
2022-09-15T09:43:01.144Z,93821.13
2022-09-15T09:45:27.805Z,93818.81
2022-09-15T09:48:01.643Z,93814.59
2022-09-15T09:50:43.801Z,93817.91
2022-09-15T09:53:26.577Z,93816.94
2022-09-15T09:55:55.312Z,93813.22
2022-09-15T09:58:25.562Z,93806.53
2022-09-15T10:00:53.095Z,93809.09
2022-09-15T10:03:21.097Z,93805.91
2022-09-15T10:06:07.746Z,93804.44
2022-09-15T10:08:36.636Z,93800.22
2022-09-15T10:11:10.281Z,93796.34
2022-09-15T10:13:50.576Z,93782.59
2022-09-15T10:16:18.953Z,93785.06
2022-09-15T10:18:45.878Z,93776.00
2022-09-15T10:21:14.194Z,93779.44
2022-09-15T10:23:40.849Z,93768.75
2022-09-15T10:26:16.376Z,93775.31
2022-09-15T10:28:43.656Z,93775.56
2022-09-15T10:31:11.249Z,93770.84
2022-09-15T10:33:42.792Z,93775.09
2022-09-15T10:36:15.172Z,93776.19
2022-09-15T10:38:47.168Z,93769.28
2022-09-15T10:41:35.670Z,93778.09
2022-09-15T10:44:09.954Z,93767.63
2022-09-15T10:46:55.300Z,93778.59
2022-09-15T10:49:46.750Z,93781.78
2022-09-15T10:52:35.483Z,93771.94
2022-09-15T10:55:42.262Z,93774.41
2022-09-15T10:58:50.094Z,93769.97
2022-09-15T11:01:32.385Z,93764.41
2022-09-15T11:04:20.814Z,93768.38
2022-09-15T11:07:08.714Z,93760.28
2022-09-15T11:10:08.907Z,93762.09
2022-09-15T11:13:00.823Z,93770.84
2022-09-15T11:15:37.376Z,93755.69
2022-09-15T11:18:14.142Z,93753.25
2022-09-15T11:20:52.595Z,93748.00
2022-09-15T11:23:24.547Z,93762.28
2022-09-15T11:25:57.397Z,93762.44
2022-09-15T11:28:33.955Z,93772.53
2022-09-15T11:31:04.621Z,93773.72
2022-09-15T11:33:40.229Z,93784.44
2022-09-15T11:36:11.298Z,93793.16
2022-09-15T11:38:49.196Z,93796.59
2022-09-15T11:41:24.616Z,93793.50
2022-09-15T11:44:01.899Z,93794.22
2022-09-15T11:46:37.673Z,93797.34
2022-09-15T11:49:12.222Z,93808.78
2022-09-15T11:51:44.584Z,93802.72
2022-09-15T11:54:17.507Z,93807.34
2022-09-15T11:56:45.477Z,93809.38
2022-09-15T11:59:22.369Z,93814.09
2022-09-15T12:01:53.792Z,93808.75
2022-09-15T12:04:27.479Z,93796.41
2022-09-15T12:07:04.671Z,93805.44
2022-09-15T12:09:31.594Z,93807.09
2022-09-15T12:12:01.974Z,93793.50
2022-09-15T12:14:33.100Z,93811.09
2022-09-15T12:17:00.090Z,93805.00
2022-09-15T12:20:00.342Z,93810.63
2022-09-15T12:22:32.130Z,93804.25
2022-09-15T12:25:06.710Z,93812.84
2022-09-15T12:27:33.465Z,93807.41
2022-09-15T12:30:00.651Z,93803.38
2022-09-15T12:32:35.187Z,93806.06
2022-09-15T12:35:04.523Z,93814.06
2022-09-15T12:37:35.712Z,93810.56
2022-09-15T12:40:05.881Z,93815.88
2022-09-15T12:42:34.725Z,93824.41
2022-09-15T12:45:12.089Z,93825.97
2022-09-15T12:47:49.225Z,93823.63
2022-09-15T12:50:15.813Z,93835.19
2022-09-15T12:53:14.523Z,93825.19
2022-09-15T12:55:58.583Z,93825.19
2022-09-15T12:58:39.444Z,93825.19
2022-09-15T13:01:34.979Z,93822.13
2022-09-15T13:04:05.017Z,93825.13
2022-09-15T13:06:35.774Z,93818.72
2022-09-15T13:09:02.343Z,93826.75
2022-09-15T13:11:37.401Z,93825.13
2022-09-15T13:14:04.606Z,93821.66
2022-09-15T13:16:32.949Z,93839.50
2022-09-15T13:19:26.383Z,93830.63
2022-09-15T13:22:11.888Z,93837.28
2022-09-15T13:25:15.894Z,93846.78
2022-09-15T13:27:48.144Z,93840.25
2022-09-15T13:30:20.694Z,93846.38
2022-09-15T13:32:59.293Z,93859.06
2022-09-15T13:35:31.549Z,93864.09
2022-09-15T13:38:35.991Z,93855.72
2022-09-15T13:41:33.285Z,93863.72
2022-09-15T13:44:20.966Z,93871.28
2022-09-15T13:47:02.710Z,93871.97
2022-09-15T13:49:29.849Z,93874.69
2022-09-15T13:52:03.602Z,93879.59
2022-09-15T13:54:30.396Z,93861.63
2022-09-15T13:57:00.607Z,93866.16
2022-09-15T13:59:31.759Z,93872.16
2022-09-15T14:01:59.447Z,93871.16
2022-09-15T14:04:32.342Z,93867.59
2022-09-15T14:07:01.311Z,93867.03
2022-09-15T14:09:31.726Z,93869.16
2022-09-15T14:12:02.451Z,93865.75
2022-09-15T14:14:54.156Z,93876.19
2022-09-15T14:17:26.583Z,93868.59
2022-09-15T14:19:55.183Z,93873.75
2022-09-15T14:22:28.865Z,93876.97
2022-09-15T14:25:06.142Z,93873.75
2022-09-15T14:27:34.777Z,93876.78
2022-09-15T14:30:04.174Z,93880.63
2022-09-15T14:32:34.804Z,93874.22
2022-09-15T14:35:05.727Z,93876.50
2022-09-15T14:37:32.703Z,93867.03
2022-09-15T14:40:00.586Z,93878.03
2022-09-15T14:42:35.614Z,93873.31
2022-09-15T14:48:01.528Z,93872.53
2022-09-15T14:50:32.538Z,93878.28
2022-09-15T14:53:08.483Z,93883.13
2022-09-15T14:56:00.582Z,93884.94
2022-09-15T14:58:33.200Z,93880.06
2022-09-15T15:01:13.959Z,93885.50
2022-09-15T15:03:52.954Z,93894.91
2022-09-15T15:06:30.499Z,93895.66
2022-09-15T15:09:18.010Z,93899.94
2022-09-15T15:11:44.770Z,93900.63
2022-09-15T15:14:12.666Z,93906.81
2022-09-15T15:16:50.891Z,93889.84
2022-09-15T15:19:40.221Z,93905.81
2022-09-15T15:22:12.904Z,93917.88
2022-09-15T15:24:51.302Z,93928.31
2022-09-15T15:27:40.740Z,93919.84
2022-09-15T15:30:29.716Z,93921.66
2022-09-15T15:32:58.976Z,93920.19
2022-09-15T15:35:25.952Z,93924.16
2022-09-15T15:38:04.851Z,93925.38
2022-09-15T15:40:31.544Z,93922.63
2022-09-15T15:43:04.936Z,93932.94
2022-09-15T15:45:36.378Z,93931.22
2022-09-15T15:48:04.972Z,93936.03
2022-09-15T15:50:34.404Z,93935.47
2022-09-15T15:53:03.056Z,93942.56
2022-09-15T15:55:42.815Z,93939.53
2022-09-15T15:58:11.538Z,93931.34
2022-09-15T16:00:46.716Z,93942.44
2022-09-15T16:03:14.653Z,93943.47
2022-09-15T16:05:44.807Z,93955.16
2022-09-15T16:08:15.845Z,93950.72
2022-09-15T16:10:45.063Z,93950.69
2022-09-15T16:13:17.263Z,93954.66
2022-09-15T16:15:44.314Z,93965.50
2022-09-15T16:18:11.530Z,93967.34
2022-09-15T16:20:38.560Z,93964.16
2022-09-15T16:23:09.963Z,93965.19
2022-09-15T16:25:45.950Z,93964.88
2022-09-15T16:28:13.021Z,93978.06
2022-09-15T16:30:39.677Z,93988.38
2022-09-15T16:33:06.382Z,93972.13
2022-09-15T16:36:08.801Z,93990.28
2022-09-15T16:38:36.404Z,93991.38
2022-09-15T16:41:03.964Z,93997.06
2022-09-15T16:43:30.737Z,93995.16
2022-09-15T16:45:57.583Z,93988.88
2022-09-15T16:48:24.404Z,93994.63
2022-09-15T16:51:16.843Z,94002.06
2022-09-15T16:53:39.548Z,93998.50
2022-09-15T16:56:07.409Z,94008.91
2022-09-15T16:58:34.471Z,93998.28
2022-09-15T17:01:01.257Z,94000.72
2022-09-15T17:03:28.266Z,94003.13
2022-09-15T17:05:57.611Z,94005.47
2022-09-15T17:08:27.405Z,94001.78
2022-09-15T17:10:56.138Z,93989.38
2022-09-15T17:13:26.459Z,93982.31
2022-09-15T17:15:56.219Z,93985.66
2022-09-15T17:18:23.357Z,93999.75
2022-09-15T17:20:50.770Z,93986.53
2022-09-15T17:23:28.743Z,94001.84
2022-09-15T17:25:59.107Z,93996.25
2022-09-15T17:28:31.811Z,94005.63
2022-09-15T17:31:00.353Z,94012.78
2022-09-15T17:33:28.466Z,94006.72
2022-09-15T17:35:55.203Z,94004.66
2022-09-15T17:38:22.326Z,94014.28
2022-09-15T17:40:50.003Z,94017.50
2022-09-15T17:43:18.773Z,94008.97
2022-09-15T17:45:46.273Z,94015.38
2022-09-15T17:48:13.062Z,94015.03
2022-09-15T17:50:41.893Z,94009.16
2022-09-15T17:53:23.702Z,94020.06
2022-09-15T17:55:50.813Z,94008.97
2022-09-15T17:58:18.820Z,94021.81
2022-09-15T18:00:46.056Z,94016.50
2022-09-15T18:03:33.384Z,94014.50
2022-09-15T18:06:03.798Z,94018.84
2022-09-15T18:08:31.748Z,94007.94
2022-09-15T18:10:59.198Z,94011.47
2022-09-15T18:13:27.449Z,94023.94
2022-09-15T18:15:55.098Z,94018.69
2022-09-15T18:18:24.050Z,94020.81
2022-09-15T18:20:51.894Z,94017.66
2022-09-15T18:23:20.774Z,94025.06
2022-09-15T18:25:48.005Z,94022.47
2022-09-15T18:28:16.006Z,94029.66
2022-09-15T18:30:44.822Z,94031.19
2022-09-15T18:33:15.278Z,94028.97
2022-09-15T18:35:42.517Z,94031.28
2022-09-15T18:38:09.325Z,94026.06
2022-09-15T18:40:36.237Z,94039.94
2022-09-15T18:43:03.325Z,94048.13
2022-09-15T18:45:30.011Z,94054.50
2022-09-15T18:47:59.562Z,94046.19
2022-09-15T18:50:26.650Z,94056.59
2022-09-15T18:52:53.410Z,94056.63
2022-09-15T18:55:21.892Z,94060.09
2022-09-15T18:57:49.218Z,94056.69
2022-09-15T19:00:18.369Z,94056.47
2022-09-15T19:02:45.027Z,94059.16
2022-09-15T19:05:12.357Z,94055.56
2022-09-15T19:07:39.234Z,94062.25
2022-09-15T19:10:07.250Z,94050.09
2022-09-15T19:12:35.362Z,94070.88
2022-09-15T19:15:02.553Z,94071.28
2022-09-15T19:17:29.225Z,94079.81
2022-09-15T19:19:55.938Z,94074.50
2022-09-15T19:22:22.647Z,94081.44
2022-09-15T19:24:49.610Z,94086.13
2022-09-15T19:27:16.301Z,94076.16
2022-09-15T19:29:42.983Z,94078.63
2022-09-15T19:32:12.800Z,94079.03
2022-09-15T19:34:41.968Z,94066.00
2022-09-15T19:37:13.162Z,94082.31
2022-09-15T19:39:43.489Z,94078.66
2022-09-15T19:42:11.357Z,94089.22
2022-09-15T19:44:38.243Z,94078.41
2022-09-15T19:47:04.897Z,94090.81
2022-09-15T19:49:31.601Z,94080.66
2022-09-15T19:51:58.301Z,94082.69
2022-09-15T19:54:29.858Z,94091.97
2022-09-15T19:56:56.841Z,94092.59
2022-09-15T19:59:27.391Z,94095.88
2022-09-15T20:01:57.079Z,94095.28
2022-09-15T20:04:23.757Z,94090.41
2022-09-15T20:06:50.536Z,94086.69
2022-09-15T20:09:17.698Z,94086.22
2022-09-15T20:11:44.457Z,94098.69
2022-09-15T20:14:11.237Z,94100.13
2022-09-15T20:16:38.041Z,94097.31
2022-09-15T20:19:05.095Z,94098.34
2022-09-15T20:21:51.197Z,94098.94
2022-09-15T20:24:19.141Z,94098.53
2022-09-15T20:26:45.867Z,94087.91
2022-09-15T20:29:12.789Z,94102.88
2022-09-15T20:31:39.426Z,94108.16
2022-09-15T20:34:06.081Z,94104.91
2022-09-15T20:36:36.186Z,94117.06
2022-09-15T20:39:04.991Z,94109.75
2022-09-15T20:41:34.497Z,94105.09
2022-09-15T20:44:01.254Z,94119.94
2022-09-15T20:46:31.512Z,94113.44
2022-09-15T20:48:58.149Z,94117.50
2022-09-15T20:51:27.941Z,94110.81
2022-09-15T20:53:56.013Z,94119.31
2022-09-15T20:56:25.768Z,94125.16
2022-09-15T20:58:57.215Z,94125.53
2022-09-15T21:01:34.122Z,94124.25
2022-09-15T21:04:01.127Z,94124.22
2022-09-15T21:06:28.444Z,94125.78
2022-09-15T21:08:58.696Z,94123.78
2022-09-15T21:11:26.752Z,94123.00
2022-09-15T21:13:54.370Z,94121.81
2022-09-15T21:16:23.363Z,94116.75
2022-09-15T21:18:50.865Z,94123.47
2022-09-15T21:21:29.925Z,94133.19
2022-09-15T21:24:00.409Z,94129.13
2022-09-15T21:26:28.977Z,94135.97
2022-09-15T21:28:56.235Z,94119.69
2022-09-15T21:31:33.280Z,94136.34
2022-09-15T21:33:59.976Z,94125.34
2022-09-15T21:36:31.123Z,94137.56
2022-09-15T21:38:58.925Z,94134.03
2022-09-15T21:41:28.438Z,94130.97
2022-09-15T21:43:55.596Z,94147.06
2022-09-15T21:46:24.328Z,94150.09
2022-09-15T21:48:51.156Z,94154.34
2022-09-15T21:51:23.496Z,94149.69
2022-09-15T21:53:55.533Z,94149.69
2022-09-15T21:56:22.695Z,94156.00
2022-09-15T21:58:49.385Z,94154.16
2022-09-15T22:01:20.083Z,94148.09
2022-09-15T22:03:58.548Z,94145.63
2022-09-15T22:06:30.291Z,94144.81
2022-09-15T22:09:00.560Z,94141.97
2022-09-15T22:11:27.546Z,94135.44
2022-09-15T22:13:54.310Z,94138.09
2022-09-15T22:16:22.269Z,94133.66
2022-09-15T22:18:49.310Z,94136.44
2022-09-15T22:21:23.191Z,94144.16
2022-09-15T22:23:50.914Z,94141.66
2022-09-15T22:26:26.314Z,94145.25
2022-09-15T22:28:53.926Z,94144.66
2022-09-15T22:31:21.617Z,94137.41
2022-09-15T22:33:49.306Z,94143.09
2022-09-15T22:36:18.717Z,94139.94
2022-09-15T22:38:45.673Z,94143.19
2022-09-15T22:41:14.117Z,94148.69
2022-09-15T22:43:43.771Z,94139.78
2022-09-15T22:46:11.025Z,94132.34
2022-09-15T22:48:43.166Z,94131.22
2022-09-15T22:51:10.736Z,94140.78
2022-09-15T22:53:37.424Z,94132.00
2022-09-15T22:56:23.306Z,94133.56
2022-09-15T22:58:50.215Z,94124.09
2022-09-15T23:01:21.516Z,94118.16
2022-09-15T23:03:55.878Z,94116.94
2022-09-15T23:06:23.722Z,94111.09
2022-09-15T23:09:00.997Z,94112.97
2022-09-15T23:11:29.249Z,94118.03
2022-09-15T23:13:56.464Z,94106.88
2022-09-15T23:16:24.336Z,94117.13
2022-09-15T23:18:51.725Z,94111.31
2022-09-15T23:21:18.640Z,94110.91
2022-09-15T23:23:46.295Z,94098.19
2022-09-15T23:26:13.677Z,94116.81
2022-09-15T23:28:40.826Z,94110.72
2022-09-15T23:31:08.781Z,94111.97
2022-09-15T23:33:35.645Z,94107.06
2022-09-15T23:36:03.457Z,94102.66
2022-09-15T23:38:30.608Z,94097.38
2022-09-15T23:40:57.435Z,94088.84
2022-09-15T23:43:24.570Z,94093.97
2022-09-15T23:45:51.395Z,94099.59
2022-09-15T23:48:18.192Z,94096.09
2022-09-15T23:50:45.012Z,94098.97
2022-09-15T23:53:11.751Z,94099.19
2022-09-15T23:55:38.469Z,94096.44
2022-09-15T23:58:06.147Z,94100.59
